createdAt,value
2022-11-07T00:03:44.533Z,10.50
2022-11-07T00:08:47.256Z,10.65
2022-11-07T00:13:50.035Z,9.55
2022-11-07T00:18:53.273Z,8.59
2022-11-07T00:23:56.246Z,9.46
2022-11-07T00:28:59.259Z,9.51
2022-11-07T00:34:02.060Z,9.82
2022-11-07T00:39:06.062Z,10.01
2022-11-07T00:44:09.347Z,9.79
2022-11-07T00:49:12.310Z,9.65
2022-11-07T00:54:15.077Z,10.30
2022-11-07T00:59:17.958Z,10.61
2022-11-07T01:04:39.459Z,10.65
2022-11-07T01:09:42.257Z,10.52
2022-11-07T01:14:45.058Z,8.95
2022-11-07T01:19:47.818Z,9.56
2022-11-07T01:24:50.632Z,10.26
2022-11-07T01:29:53.464Z,10.58
2022-11-07T01:34:56.208Z,10.83
2022-11-07T01:39:58.962Z,10.71
2022-11-07T01:45:02.084Z,10.44
2022-11-07T01:50:07.453Z,10.10
2022-11-07T01:55:33.891Z,10.15
2022-11-07T02:00:37.490Z,10.38
2022-11-07T02:05:48.302Z,10.54
2022-11-07T02:10:52.984Z,9.77
2022-11-07T02:15:56.676Z,9.00
2022-11-07T02:21:07.769Z,9.42
2022-11-07T02:26:11.104Z,9.43
2022-11-07T02:31:13.794Z,9.64
2022-11-07T02:36:19.857Z,9.24
2022-11-07T02:41:25.305Z,9.17
2022-11-07T02:46:29.574Z,9.29
2022-11-07T02:51:32.712Z,9.62
2022-11-07T02:56:35.557Z,9.25
2022-11-07T03:01:38.448Z,8.94
2022-11-07T03:06:41.376Z,9.03
2022-11-07T03:11:44.080Z,9.88
2022-11-07T03:16:46.792Z,10.50
2022-11-07T03:21:51.055Z,10.71
2022-11-07T03:26:53.816Z,10.93
2022-11-07T03:31:57.122Z,10.41
2022-11-07T03:36:59.876Z,8.36
2022-11-07T03:42:02.741Z,9.26
2022-11-07T03:47:05.480Z,10.02
2022-11-07T03:52:08.227Z,10.22
2022-11-07T03:57:11.036Z,10.13
2022-11-07T04:02:14.386Z,9.85
2022-11-07T04:07:17.219Z,9.94
2022-11-07T04:12:38.578Z,9.47
2022-11-07T04:17:41.393Z,9.71
2022-11-07T04:22:44.140Z,10.06
2022-11-07T04:27:47.051Z,10.31
2022-11-07T04:32:53.192Z,10.87
2022-11-07T04:37:56.065Z,10.90
2022-11-07T04:42:58.886Z,11.35
2022-11-07T04:48:01.791Z,11.21
2022-11-07T04:53:05.050Z,10.58
2022-11-07T04:58:08.010Z,10.69
2022-11-07T05:03:11.749Z,10.65
2022-11-07T05:08:14.735Z,10.51
2022-11-07T05:13:18.769Z,10.77
2022-11-07T05:18:25.099Z,10.98
2022-11-07T05:23:28.672Z,10.50
2022-11-07T05:28:38.789Z,10.52
2022-11-07T05:33:42.855Z,10.47
2022-11-07T05:38:48.342Z,10.65
2022-11-07T05:43:51.093Z,11.05
2022-11-07T05:48:58.035Z,11.50
2022-11-07T05:54:03.711Z,11.75
2022-11-07T05:59:06.932Z,11.66
2022-11-07T06:04:09.930Z,11.83
2022-11-07T06:09:12.807Z,12.17
2022-11-07T06:14:15.530Z,12.22
2022-11-07T06:19:18.438Z,12.47
2022-11-07T06:24:21.166Z,12.58
2022-11-07T06:29:23.895Z,11.85
2022-11-07T06:34:27.111Z,12.24
2022-11-07T06:39:29.898Z,12.09
2022-11-07T06:44:32.706Z,12.19
2022-11-07T06:49:35.425Z,11.67
2022-11-07T06:54:38.251Z,12.04
2022-11-07T06:59:41.024Z,12.60
2022-11-07T07:04:44.179Z,12.98
2022-11-07T07:09:46.964Z,12.86
2022-11-07T07:14:50.110Z,12.58
2022-11-07T07:19:53.132Z,12.78
2022-11-07T07:24:55.985Z,12.70
2022-11-07T07:29:58.787Z,13.00
2022-11-07T07:35:01.897Z,13.06
2022-11-07T07:40:05.628Z,12.88
2022-11-07T07:45:13.130Z,12.63
2022-11-07T07:50:15.882Z,12.97
2022-11-07T07:55:19.485Z,12.80
2022-11-07T08:00:22.365Z,13.02
2022-11-07T08:05:25.879Z,13.32
2022-11-07T08:10:44.649Z,13.19
2022-11-07T08:15:47.558Z,13.41
2022-11-07T08:20:52.533Z,13.33
2022-11-07T08:25:57.444Z,13.52
2022-11-07T08:31:03.974Z,12.38
2022-11-07T08:36:08.332Z,13.46
2022-11-07T08:41:11.234Z,13.61
2022-11-07T08:46:14.003Z,12.83
2022-11-07T08:51:16.792Z,12.46
2022-11-07T08:56:19.591Z,13.93
2022-11-07T09:01:22.348Z,12.73
2022-11-07T09:06:25.248Z,13.82
2022-11-07T09:11:28.511Z,13.12
2022-11-07T09:16:31.516Z,12.54
2022-11-07T09:21:34.244Z,13.43
2022-11-07T09:26:37.224Z,12.11
2022-11-07T09:31:40.025Z,13.62
2022-11-07T09:36:43.539Z,12.97
2022-11-07T09:42:10.305Z,13.19
2022-11-07T09:47:17.242Z,13.93
2022-11-07T09:52:28.718Z,12.55
2022-11-07T09:57:34.660Z,13.59
2022-11-07T10:02:43.937Z,13.95
2022-11-07T10:07:55.758Z,12.08
2022-11-07T10:13:27.873Z,13.27
2022-11-07T10:18:45.891Z,13.97
2022-11-07T10:23:54.344Z,13.23
2022-11-07T10:29:05.241Z,12.58
2022-11-07T10:34:34.953Z,14.09
2022-11-07T10:39:38.548Z,14.81
2022-11-07T10:44:42.722Z,14.75
2022-11-07T10:50:00.032Z,14.07
2022-11-07T10:55:06.894Z,12.93
2022-11-07T11:00:28.960Z,14.13
2022-11-07T11:05:31.683Z,12.83
2022-11-07T11:10:39.414Z,13.71
2022-11-07T11:15:46.156Z,13.68
2022-11-07T11:20:58.142Z,12.78
2022-11-07T11:26:06.141Z,14.74
2022-11-07T11:31:21.972Z,14.23
2022-11-07T11:36:35.405Z,15.48
2022-11-07T11:41:49.265Z,17.60
2022-11-07T11:47:28.091Z,17.91
2022-11-07T11:52:35.749Z,16.49
2022-11-07T11:57:57.512Z,14.67
2022-11-07T12:03:06.116Z,13.13
2022-11-07T12:08:14.997Z,12.75
2022-11-07T12:13:29.133Z,14.32
2022-11-07T12:18:46.873Z,13.53
2022-11-07T12:24:21.114Z,12.80
2022-11-07T12:29:32.933Z,16.27
2022-11-07T12:35:14.229Z,17.37
2022-11-07T12:40:38.360Z,17.99
2022-11-07T12:46:06.338Z,18.14
2022-11-07T12:51:15.702Z,18.02
2022-11-07T12:56:25.654Z,16.76
2022-11-07T13:01:44.383Z,16.79
2022-11-07T13:06:57.767Z,17.66
2022-11-07T13:12:05.388Z,17.30
2022-11-07T13:17:20.193Z,15.45
2022-11-07T13:22:32.308Z,13.68
2022-11-07T13:27:38.575Z,12.42
2022-11-07T13:32:47.648Z,11.48
2022-11-07T13:37:58.275Z,11.88
2022-11-07T13:43:24.364Z,13.02
2022-11-07T13:48:52.751Z,11.59
2022-11-07T13:54:11.636Z,10.72
2022-11-07T13:59:36.765Z,11.44
2022-11-07T14:05:02.466Z,13.01
2022-11-07T14:10:06.172Z,11.67
2022-11-07T14:15:16.319Z,12.61
2022-11-07T14:20:19.957Z,12.42
2022-11-07T14:25:32.926Z,11.18
2022-11-07T14:30:42.023Z,12.62
2022-11-07T14:35:47.550Z,13.64
2022-11-07T14:40:55.641Z,12.02
2022-11-07T14:46:13.133Z,12.52
2022-11-07T14:51:22.193Z,12.38
2022-11-07T14:56:31.068Z,11.89
2022-11-07T15:01:34.639Z,13.20
2022-11-07T15:06:43.128Z,12.04
2022-11-07T15:11:58.387Z,12.99
2022-11-07T15:17:05.902Z,12.84
2022-11-07T15:22:26.826Z,12.26
2022-11-07T15:27:33.534Z,13.29
2022-11-07T15:32:42.054Z,11.81
2022-11-07T15:37:55.736Z,13.03
2022-11-07T15:42:58.921Z,13.79
2022-11-07T15:48:01.932Z,11.94
2022-11-07T15:53:04.935Z,12.78
2022-11-07T15:58:13.279Z,14.19
2022-11-07T16:03:18.350Z,12.35
2022-11-07T16:08:23.979Z,12.95
2022-11-07T16:13:27.655Z,13.91
2022-11-07T16:18:38.092Z,12.26
2022-11-07T16:23:42.429Z,13.30
2022-11-07T16:28:46.133Z,13.94
2022-11-07T16:33:49.106Z,12.14
2022-11-07T16:38:52.985Z,12.58
2022-11-07T16:43:55.840Z,13.76
2022-11-07T16:49:06.117Z,12.33
2022-11-07T16:54:09.272Z,12.90
2022-11-07T16:59:19.662Z,14.14
2022-11-07T17:04:22.523Z,12.86
2022-11-07T17:09:27.946Z,12.14
2022-11-07T17:14:30.710Z,13.57
2022-11-07T17:19:34.458Z,12.93
2022-11-07T17:24:37.661Z,12.25
2022-11-07T17:29:40.422Z,13.70
2022-11-07T17:34:43.134Z,12.92
2022-11-07T17:39:48.505Z,12.01
2022-11-07T17:44:51.324Z,13.18
2022-11-07T17:49:54.632Z,13.59
2022-11-07T17:54:57.536Z,14.14
2022-11-07T18:00:00.372Z,12.96
2022-11-07T18:05:03.247Z,12.17
2022-11-07T18:10:07.680Z,13.74
2022-11-07T18:15:14.010Z,12.96
2022-11-07T18:20:16.972Z,12.08
2022-11-07T18:25:19.879Z,13.61
2022-11-07T18:30:22.661Z,13.93
2022-11-07T18:35:25.361Z,12.46
2022-11-07T18:40:28.178Z,13.09
2022-11-07T18:45:31.084Z,13.81
2022-11-07T18:50:37.060Z,12.90
2022-11-07T18:55:40.274Z,12.00
2022-11-07T19:00:44.529Z,12.97
2022-11-07T19:05:47.718Z,13.60
2022-11-07T19:10:51.034Z,13.80
2022-11-07T19:15:54.042Z,14.04
2022-11-07T19:20:56.839Z,13.48
2022-11-07T19:25:59.847Z,12.60
2022-11-07T19:31:04.227Z,13.43
2022-11-07T19:36:12.442Z,13.90
2022-11-07T19:41:16.645Z,14.19
2022-11-07T19:46:21.827Z,14.45
2022-11-07T19:51:25.119Z,12.85
2022-11-07T19:56:30.654Z,13.03
2022-11-07T20:01:35.752Z,13.72
2022-11-07T20:06:39.182Z,14.28
2022-11-07T20:11:43.685Z,14.33
2022-11-07T20:16:46.433Z,12.72
2022-11-07T20:21:49.202Z,13.15
2022-11-07T20:26:52.142Z,13.65
2022-11-07T20:31:55.005Z,14.05
2022-11-07T20:36:57.721Z,14.28
2022-11-07T20:42:00.510Z,12.73
2022-11-07T20:47:03.415Z,12.06
2022-11-07T20:52:09.392Z,13.36
2022-11-07T20:57:12.589Z,14.03
2022-11-07T21:02:15.674Z,14.07
2022-11-07T21:07:22.814Z,13.99
2022-11-07T21:12:25.523Z,14.26
2022-11-07T21:17:29.141Z,14.29
2022-11-07T21:22:31.925Z,14.03
2022-11-07T21:27:36.371Z,13.10
2022-11-07T21:32:39.589Z,13.95
2022-11-07T21:37:42.290Z,14.31
2022-11-07T21:42:45.045Z,14.49
2022-11-07T21:47:47.812Z,14.24
2022-11-07T21:52:50.552Z,12.68
2022-11-07T21:57:53.359Z,13.60
2022-11-07T22:02:56.097Z,14.49
2022-11-07T22:07:58.827Z,12.92
2022-11-07T22:13:01.797Z,13.06
2022-11-07T22:18:04.803Z,13.94
2022-11-07T22:23:07.602Z,14.35
2022-11-07T22:28:10.311Z,14.49
2022-11-07T22:33:13.145Z,14.12
2022-11-07T22:38:16.010Z,13.04
2022-11-07T22:43:19.210Z,13.94
2022-11-07T22:48:22.223Z,14.26
2022-11-07T22:53:24.955Z,14.41
2022-11-07T22:58:28.560Z,12.63
2022-11-07T23:03:32.811Z,13.05
2022-11-07T23:08:36.458Z,13.65
2022-11-07T23:13:40.231Z,13.90
2022-11-07T23:18:42.966Z,13.99
2022-11-07T23:23:45.686Z,13.92
2022-11-07T23:28:49.333Z,14.22
2022-11-07T23:33:52.025Z,14.22
2022-11-07T23:38:54.719Z,13.93
2022-11-07T23:43:57.465Z,13.95
2022-11-07T23:49:18.786Z,13.96
2022-11-07T23:54:40.070Z,12.19
